Time;durP1;ratioP1;P1;durP2;ratioP2;P2;SDS_P1;SDS_P2;PMS_P1;PMS_P2;Temp;Humidity;BMP_temperature;BMP_pressure;BME280_temperature;BME280_humidity;BME280_pressure;Samples;Min_cycle;Max_cycle;Signal;HPM_P1;HPM_P2
2021/01/10 00:01:16;;;;;;;20.58;7.82;;;-0.20;99.90;;;;;;4995485;28;20027;-61
2021/01/10 00:03:42;;;;;;;16.48;7.30;;;-0.10;99.90;;;;;;4994990;28;20069;-59
2021/01/10 00:06:09;;;;;;;13.50;6.72;;;-0.20;99.90;;;;;;4995054;28;20367;-60
2021/01/10 00:08:35;;;;;;;16.30;7.97;;;-0.20;99.90;;;;;;4994970;28;20126;-60
2021/01/10 00:11:01;;;;;;;17.52;7.55;;;-0.20;99.90;;;;;;4995153;28;20035;-60
2021/01/10 00:13:27;;;;;;;16.63;7.30;;;-0.10;99.90;;;;;;4994923;28;20042;-61
2021/01/10 00:15:53;;;;;;;17.27;7.90;;;-0.10;99.90;;;;;;4994678;28;20396;-61
2021/01/10 00:18:18;;;;;;;19.52;8.10;;;-0.10;99.90;;;;;;4993741;28;20054;-60
2021/01/10 00:20:44;;;;;;;25.42;12.57;;;-0.10;99.90;;;;;;4994728;28;20033;-61
2021/01/10 00:23:10;;;;;;;20.25;8.45;;;0.10;99.90;;;;;;4994608;28;20576;-61
2021/01/10 00:25:36;;;;;;;13.43;6.63;;;0.00;99.90;;;;;;4994731;28;20030;-60
2021/01/10 00:28:02;;;;;;;16.27;6.82;;;-0.10;99.90;;;;;;4994791;28;20049;-60
2021/01/10 00:30:28;;;;;;;14.32;7.10;;;-0.10;99.90;;;;;;4994558;28;20046;-60
2021/01/10 00:32:56;;;;;;;16.70;6.70;;;0.00;99.90;;;;;;4994728;28;20050;-60
2021/01/10 00:35:25;;;;;;;16.20;6.93;;;0.00;99.90;;;;;;4994477;28;20076;-61
2021/01/10 00:37:56;;;;;;;15.00;6.88;;;-0.10;99.90;;;;;;4994076;28;20034;-60
2021/01/10 00:40:26;;;;;;;20.23;7.70;;;-0.10;99.90;;;;;;4994727;28;20026;-61
2021/01/10 00:42:52;;;;;;;17.25;7.55;;;-0.10;99.90;;;;;;4994400;28;20049;-61
2021/01/10 00:45:18;;;;;;;16.33;6.97;;;0.00;99.90;;;;;;4994652;28;20027;-61
2021/01/10 00:47:45;;;;;;;14.10;6.70;;;-0.10;99.90;;;;;;4994217;28;20117;-61
2021/01/10 00:50:11;;;;;;;14.23;6.88;;;-0.10;99.90;;;;;;4994165;28;20053;-61
2021/01/10 00:52:37;;;;;;;12.20;6.97;;;-0.10;99.90;;;;;;4994527;28;20034;-61
2021/01/10 00:55:06;;;;;;;15.15;7.60;;;0.00;99.90;;;;;;4994396;28;20422;-61
2021/01/10 00:57:32;;;;;;;15.63;7.68;;;0.00;99.90;;;;;;4992801;28;20038;-60
2021/01/10 00:59:58;;;;;;;16.63;7.65;;;0.00;99.90;;;;;;4993996;28;20125;-61
2021/01/10 01:02:24;;;;;;;14.90;7.05;;;0.10;99.90;;;;;;4994287;28;20026;-59
2021/01/10 01:04:50;;;;;;;10.85;6.65;;;0.20;99.90;;;;;;4993996;28;20037;-59
2021/01/10 01:07:16;;;;;;;16.95;7.35;;;0.10;99.90;;;;;;5009223;28;20035;-60
2021/01/10 01:09:42;;;;;;;14.43;6.82;;;0.10;99.90;;;;;;4994116;28;20556;-60
2021/01/10 01:12:08;;;;;;;16.50;7.97;;;0.10;99.90;;;;;;4993783;28;20104;-60
2021/01/10 01:14:34;;;;;;;16.05;7.75;;;0.00;99.90;;;;;;4994134;28;20038;-60
2021/01/10 01:17:00;;;;;;;16.00;8.15;;;0.10;99.90;;;;;;4993895;28;20107;-60
2021/01/10 01:19:26;;;;;;;19.60;6.68;;;0.10;99.90;;;;;;4993744;28;20062;-60
2021/01/10 01:21:52;;;;;;;12.00;6.28;;;0.10;99.90;;;;;;4993725;28;20057;-60
2021/01/10 01:24:21;;;;;;;13.93;7.28;;;0.10;99.90;;;;;;4993647;28;20037;-60
2021/01/10 01:26:47;;;;;;;15.52;7.53;;;0.00;99.90;;;;;;4993600;28;20057;-60
2021/01/10 01:29:14;;;;;;;14.77;7.13;;;-0.30;99.90;;;;;;4991948;28;20050;-60
2021/01/10 01:31:41;;;;;;;14.35;7.22;;;-0.30;99.90;;;;;;4993563;28;20030;-60
2021/01/10 01:34:07;;;;;;;14.18;7.50;;;-0.50;99.90;;;;;;4993578;28;20030;-61
2021/01/10 01:36:33;;;;;;;14.68;6.60;;;-0.70;99.90;;;;;;4993366;28;20026;-59
2021/01/10 01:39:01;;;;;;;20.00;8.20;;;-0.70;99.90;;;;;;4993188;28;20038;-60
2021/01/10 01:41:28;;;;;;;17.58;8.57;;;-0.70;99.90;;;;;;4993209;28;20036;-60
2021/01/10 01:43:55;;;;;;;15.38;7.93;;;-0.70;99.90;;;;;;4993549;28;20065;-60
2021/01/10 01:46:36;;;;;;;16.48;7.60;;;-0.80;99.90;;;;;;4993558;28;20041;-60
2021/01/10 01:49:09;;;;;;;14.73;7.45;;;-1.00;99.90;;;;;;4992357;28;20073;-60
2021/01/10 01:51:40;;;;;;;19.33;8.07;;;-1.00;99.90;;;;;;4993506;28;20084;-60
2021/01/10 01:54:07;;;;;;;20.10;7.50;;;-1.00;99.90;;;;;;4993226;28;20041;-59
2021/01/10 01:56:34;;;;;;;17.25;7.47;;;-1.00;99.90;;;;;;4993115;28;20034;-60
2021/01/10 01:59:03;;;;;;;17.40;8.23;;;-1.20;99.90;;;;;;4992984;28;20041;-61
2021/01/10 02:01:32;;;;;;;15.55;7.15;;;-1.20;99.90;;;;;;4993043;28;20046;-61
2021/01/10 02:04:20;;;;;;;15.05;7.85;;;-1.20;99.90;;;;;;4992843;28;20035;-61
2021/01/10 02:06:57;;;;;;;15.55;7.57;;;-1.20;99.90;;;;;;4993025;28;20042;-61
2021/01/10 02:09:25;;;;;;;14.90;6.82;;;-1.20;99.90;;;;;;4992171;28;20041;-61
2021/01/10 02:11:53;;;;;;;17.13;8.10;;;-1.10;99.90;;;;;;4992010;28;20117;-61
2021/01/10 02:14:24;;;;;;;15.50;6.57;;;-1.20;99.90;;;;;;4993012;28;20034;-61
2021/01/10 02:16:50;;;;;;;14.65;6.90;;;-1.20;99.90;;;;;;4992773;28;20061;-61
2021/01/10 02:19:33;;;;;;;14.27;6.65;;;-1.10;99.90;;;;;;4992695;28;20045;-61
2021/01/10 02:22:05;;;;;;;17.30;7.43;;;-1.10;99.90;;;;;;4991593;28;20031;-61
2021/01/10 02:24:34;;;;;;;19.13;8.38;;;-1.10;99.90;;;;;;4991619;28;20109;-61
2021/01/10 02:27:05;;;;;;;15.25;8.15;;;-1.00;99.90;;;;;;4992788;28;20045;-61
2021/01/10 02:29:36;;;;;;;12.95;6.43;;;-1.00;99.90;;;;;;4991356;28;20050;-61
2021/01/10 02:32:05;;;;;;;13.80;6.82;;;-1.00;99.90;;;;;;4991707;28;20062;-61
2021/01/10 02:34:34;;;;;;;13.45;6.85;;;-1.20;99.90;;;;;;4991412;28;20088;-60
2021/01/10 02:37:51;;;;;;;14.70;7.20;;;-1.20;99.90;;;;;;4992252;28;20030;-60
2021/01/10 02:40:35;;;;;;;15.48;6.68;;;-1.20;99.90;;;;;;4992495;28;20034;-60
2021/01/10 02:43:26;;;;;;;15.40;7.30;;;-1.30;99.90;;;;;;4991409;28;20049;-60
2021/01/10 02:45:59;;;;;;;16.90;6.80;;;-1.40;99.90;;;;;;4992611;28;20033;-60
2021/01/10 02:48:26;;;;;;;16.67;7.40;;;-1.50;99.90;;;;;;4991522;28;20117;-60
2021/01/10 02:50:52;;;;;;;17.77;8.05;;;-1.50;99.90;;;;;;4992805;28;20031;-60
2021/01/10 02:53:17;;;;;;;14.25;7.38;;;-1.60;99.90;;;;;;4992186;28;20030;-60
2021/01/10 02:55:43;;;;;;;15.85;7.95;;;-1.60;99.90;;;;;;4992493;28;20388;-60
2021/01/10 02:58:22;;;;;;;16.67;7.50;;;-1.60;99.90;;;;;;4992626;28;20034;-60
2021/01/10 03:00:53;;;;;;;18.95;7.65;;;-1.60;99.90;;;;;;4993397;28;20050;-60
2021/01/10 03:03:20;;;;;;;17.17;7.32;;;-1.70;99.90;;;;;;4995083;28;20038;-60
2021/01/10 03:05:47;;;;;;;17.23;8.02;;;-1.80;99.90;;;;;;4995366;28;20118;-60
2021/01/10 03:08:14;;;;;;;22.25;8.23;;;-1.80;99.90;;;;;;4996118;28;20370;-60
2021/01/10 03:10:41;;;;;;;17.05;7.80;;;-1.80;99.90;;;;;;4996478;28;20027;-60
2021/01/10 03:13:08;;;;;;;15.98;7.28;;;-1.80;99.90;;;;;;4994834;28;20134;-60
2021/01/10 03:15:35;;;;;;;17.30;8.23;;;-1.90;99.90;;;;;;4996046;28;20110;-60
2021/01/10 03:18:20;;;;;;;14.85;7.50;;;-1.80;99.90;;;;;;4994611;28;20137;-60
2021/01/10 03:20:47;;;;;;;16.42;7.43;;;-1.70;99.90;;;;;;4996039;28;20076;-60
2021/01/10 03:23:14;;;;;;;22.52;8.18;;;-1.80;99.90;;;;;;4996052;28;20030;-60
2021/01/10 03:25:41;;;;;;;16.33;7.28;;;-1.80;99.90;;;;;;4994711;28;20041;-60
2021/01/10 03:28:08;;;;;;;18.88;7.97;;;-1.70;99.90;;;;;;4995883;28;20027;-60
2021/01/10 03:30:35;;;;;;;17.77;7.53;;;-1.60;99.90;;;;;;4995643;28;20046;-60
2021/01/10 03:33:03;;;;;;;14.50;6.88;;;-1.70;99.90;;;;;;4995629;28;20034;-60
2021/01/10 03:35:29;;;;;;;16.65;7.78;;;-1.70;99.90;;;;;;4995968;28;20037;-60
2021/01/10 03:37:55;;;;;;;16.92;7.47;;;-1.70;99.90;;;;;;4995492;28;20026;-60
2021/01/10 03:40:21;;;;;;;15.93;7.72;;;-1.70;99.90;;;;;;4995507;28;20376;-60
2021/01/10 03:42:47;;;;;;;18.08;8.02;;;-1.70;99.90;;;;;;4994262;28;20050;-60
2021/01/10 03:45:17;;;;;;;14.68;7.70;;;-1.70;99.90;;;;;;4994261;28;20467;-60
2021/01/10 03:47:43;;;;;;;18.70;8.23;;;-1.70;99.90;;;;;;4994411;28;20030;-60
2021/01/10 03:50:10;;;;;;;16.23;7.60;;;-1.70;99.90;;;;;;4994889;28;20030;-60
2021/01/10 03:52:37;;;;;;;17.50;8.43;;;-1.70;99.90;;;;;;4995241;28;20101;-60
2021/01/10 03:55:07;;;;;;;17.50;7.82;;;-1.70;99.90;;;;;;4995482;28;20034;-60
2021/01/10 03:57:37;;;;;;;20.10;7.93;;;-1.80;99.90;;;;;;4995146;28;20050;-60
2021/01/10 04:00:09;;;;;;;15.07;6.97;;;-1.90;99.90;;;;;;4995397;28;20042;-61
2021/01/10 04:02:35;;;;;;;14.43;6.90;;;-1.80;99.90;;;;;;4995361;28;20026;-61
2021/01/10 04:05:01;;;;;;;15.75;8.20;;;-1.60;99.90;;;;;;4995164;28;20085;-59
2021/01/10 04:07:27;;;;;;;15.98;7.60;;;-1.60;99.90;;;;;;4994817;28;20077;-59
2021/01/10 04:09:53;;;;;;;19.73;7.85;;;-1.70;99.90;;;;;;4993852;28;20035;-60
2021/01/10 04:12:19;;;;;;;19.48;8.45;;;-1.70;99.90;;;;;;4993891;28;20026;-60
2021/01/10 04:14:45;;;;;;;17.48;7.65;;;-1.70;99.90;;;;;;4995063;28;20049;-60
2021/01/10 04:17:11;;;;;;;17.58;7.53;;;-1.70;99.90;;;;;;4995012;28;20073;-60
2021/01/10 04:19:37;;;;;;;16.98;7.75;;;-1.80;99.90;;;;;;4995128;28;20034;-60
2021/01/10 04:22:03;;;;;;;17.10;7.82;;;-1.90;99.90;;;;;;4995150;28;20038;-60
2021/01/10 04:24:29;;;;;;;14.70;7.22;;;-1.90;99.90;;;;;;4994744;28;20173;-60
2021/01/10 04:26:55;;;;;;;16.42;7.20;;;-1.90;99.90;;;;;;4995100;28;20018;-60
2021/01/10 04:29:21;;;;;;;18.05;8.02;;;-1.80;99.90;;;;;;4994603;28;20395;-60
2021/01/10 04:31:49;;;;;;;14.55;6.82;;;-1.80;99.90;;;;;;4994818;28;20033;-60
2021/01/10 04:34:16;;;;;;;15.57;7.32;;;-1.80;99.90;;;;;;4994468;28;20138;-60
2021/01/10 04:36:42;;;;;;;14.57;7.25;;;-1.80;99.90;;;;;;4993539;28;20030;-60
2021/01/10 04:39:08;;;;;;;13.40;6.57;;;-1.90;99.90;;;;;;4994607;28;20022;-60
2021/01/10 04:41:34;;;;;;;13.48;6.78;;;-1.90;99.90;;;;;;4994486;28;20049;-60
2021/01/10 04:44:01;;;;;;;23.67;8.10;;;-2.00;99.90;;;;;;4994702;28;20113;-60
2021/01/10 04:46:29;;;;;;;15.65;6.18;;;-2.00;99.90;;;;;;4994240;28;20030;-60
2021/01/10 04:48:57;;;;;;;14.40;7.40;;;-2.10;99.90;;;;;;4994444;28;20038;-60
2021/01/10 04:51:26;;;;;;;17.38;6.93;;;-2.10;99.90;;;;;;4994020;28;20018;-60
2021/01/10 04:53:56;;;;;;;16.90;7.03;;;-2.10;99.90;;;;;;4994523;28;20026;-60
2021/01/10 04:56:28;;;;;;;16.25;7.35;;;-2.10;99.90;;;;;;4994372;28;20039;-60
2021/01/10 04:59:00;;;;;;;13.25;6.65;;;-2.20;99.90;;;;;;4994086;28;20039;-60
2021/01/10 05:01:35;;;;;;;16.45;7.13;;;-2.10;99.90;;;;;;4994055;28;20057;-60
2021/01/10 05:04:03;;;;;;;14.48;6.85;;;-2.00;99.90;;;;;;4993204;28;20120;-60
2021/01/10 05:06:34;;;;;;;14.55;6.78;;;-2.00;99.90;;;;;;4993720;28;20034;-60
2021/01/10 05:09:01;;;;;;;11.07;6.20;;;-2.00;99.90;;;;;;4993973;28;20062;-60
2021/01/10 05:11:27;;;;;;;13.90;7.03;;;-2.10;99.90;;;;;;4993744;28;20325;-60
2021/01/10 05:13:53;;;;;;;14.82;7.00;;;-2.10;99.90;;;;;;4994177;28;20034;-60
2021/01/10 05:16:20;;;;;;;15.32;6.65;;;-2.10;99.90;;;;;;4993814;28;20106;-60
2021/01/10 05:18:53;;;;;;;16.13;7.22;;;-2.10;99.90;;;;;;4993862;28;20027;-60
2021/01/10 05:21:21;;;;;;;16.23;7.30;;;-2.10;99.90;;;;;;4993606;28;20026;-60
2021/01/10 05:24:05;;;;;;;13.90;6.78;;;-2.10;99.90;;;;;;4993937;28;20122;-60
2021/01/10 05:26:37;;;;;;;19.02;7.53;;;-2.10;99.90;;;;;;4993810;28;20042;-60
2021/01/10 05:29:06;;;;;;;17.73;7.00;;;-2.00;99.90;;;;;;4993302;28;20027;-60
2021/01/10 05:31:44;;;;;;;14.80;7.47;;;-2.10;99.90;;;;;;4993758;28;20033;-60
2021/01/10 05:34:28;;;;;;;14.75;6.55;;;-2.10;99.90;;;;;;4993646;28;20038;-60
2021/01/10 05:36:56;;;;;;;17.08;7.57;;;-2.00;99.90;;;;;;4992230;28;20030;-60
2021/01/10 05:39:27;;;;;;;14.40;6.60;;;-2.00;99.90;;;;;;4993323;28;20034;-61
2021/01/10 05:42:05;;;;;;;14.80;6.30;;;-1.90;99.90;;;;;;4992284;28;20080;-60
2021/01/10 05:44:49;;;;;;;13.02;6.57;;;-1.70;99.90;;;;;;4993181;28;20035;-60
2021/01/10 05:47:17;;;;;;;14.27;6.60;;;-1.70;99.90;;;;;;4993130;28;20113;-60
2021/01/10 05:49:46;;;;;;;13.63;6.00;;;-1.60;99.90;;;;;;4993162;28;20038;-60
2021/01/10 05:52:13;;;;;;;12.75;6.38;;;-1.60;99.90;;;;;;4993111;28;20067;-60
2021/01/10 05:54:44;;;;;;;10.82;5.80;;;-1.60;99.90;;;;;;4993163;28;20035;-60
2021/01/10 05:57:17;;;;;;;13.30;6.20;;;-1.70;99.90;;;;;;4993464;28;20030;-61
2021/01/10 05:59:49;;;;;;;14.77;6.28;;;-1.70;99.90;;;;;;4991984;28;20035;-60
2021/01/10 06:02:36;;;;;;;13.55;7.03;;;-1.70;99.90;;;;;;4992998;28;20041;-60
2021/01/10 06:05:12;;;;;;;11.73;6.03;;;-1.50;99.90;;;;;;4992991;28;20038;-60
2021/01/10 06:07:39;;;;;;;11.80;6.20;;;-1.40;99.90;;;;;;4991860;28;20030;-60
2021/01/10 06:10:07;;;;;;;15.55;5.68;;;-1.40;99.90;;;;;;4992901;28;20034;-60
2021/01/10 06:12:34;;;;;;;12.63;5.82;;;-1.50;99.90;;;;;;4992859;28;20157;-60
2021/01/10 06:15:18;;;;;;;12.88;6.43;;;-1.60;99.90;;;;;;4992731;28;20130;-60
2021/01/10 06:17:50;;;;;;;10.40;5.03;;;-1.70;99.90;;;;;;4993106;28;20030;-61
2021/01/10 06:20:26;;;;;;;12.20;6.03;;;-1.80;99.90;;;;;;4992936;28;20035;-61
2021/01/10 06:22:58;;;;;;;13.80;5.88;;;-1.80;99.90;;;;;;4993050;28;20041;-62
2021/01/10 06:25:27;;;;;;;11.02;5.32;;;-1.80;99.90;;;;;;4992554;28;20085;-59
2021/01/10 06:28:05;;;;;;;12.88;5.75;;;-1.70;99.90;;;;;;4993027;28;20080;-60
2021/01/10 06:30:33;;;;;;;13.63;5.72;;;-1.80;99.90;;;;;;4992375;28;20050;-60
2021/01/10 06:33:11;;;;;;;10.45;5.15;;;-1.80;99.90;;;;;;4992965;28;20057;-60
2021/01/10 06:35:41;;;;;;;11.90;5.93;;;-1.90;99.90;;;;;;4996729;28;20030;-60
2021/01/10 06:38:10;;;;;;;13.45;5.80;;;-2.00;99.90;;;;;;4999281;28;20053;-60
2021/01/10 06:40:39;;;;;;;12.25;5.68;;;-2.10;99.90;;;;;;4998909;28;20038;-60
2021/01/10 06:43:07;;;;;;;12.63;6.40;;;-2.10;99.90;;;;;;4999390;28;20177;-60
2021/01/10 06:45:40;;;;;;;16.88;6.93;;;-2.20;99.90;;;;;;4999200;28;20053;-59
2021/01/10 06:48:08;;;;;;;13.10;6.40;;;-2.40;99.90;;;;;;4998929;28;20037;-59
2021/01/10 06:50:35;;;;;;;12.85;6.40;;;-2.50;99.90;;;;;;4999019;28;20042;-60
2021/01/10 06:53:13;;;;;;;13.75;6.63;;;-2.60;99.90;;;;;;4998966;28;20073;-60
2021/01/10 06:55:43;;;;;;;14.32;6.75;;;-2.70;99.90;;;;;;4998866;28;20117;-59
2021/01/10 06:58:10;;;;;;;14.93;5.88;;;-2.70;99.90;;;;;;4997871;28;20050;-60
2021/01/10 07:00:58;;;;;;;11.90;5.80;;;-2.80;99.90;;;;;;4997390;28;20081;-59
2021/01/10 07:03:26;;;;;;;13.93;6.47;;;-2.80;99.90;;;;;;4998513;28;20081;-57
2021/01/10 07:06:12;;;;;;;17.05;6.72;;;-2.90;99.90;;;;;;4998723;28;20065;-59
2021/01/10 07:08:52;;;;;;;16.13;7.30;;;-3.00;99.90;;;;;;4998317;28;20061;-56
2021/01/10 07:11:23;;;;;;;13.32;6.03;;;-2.90;99.90;;;;;;4997632;28;20031;-57
2021/01/10 07:13:55;;;;;;;13.30;5.68;;;-3.00;99.90;;;;;;4998685;28;20089;-55
2021/01/10 07:16:28;;;;;;;15.27;6.60;;;-3.10;99.90;;;;;;4998409;28;20042;-57
2021/01/10 07:19:09;;;;;;;13.27;6.10;;;-3.00;99.90;;;;;;4997789;28;20034;-56
2021/01/10 07:21:37;;;;;;;12.90;6.10;;;-3.00;99.90;;;;;;4997046;28;20113;-51
2021/01/10 07:24:21;;;;;;;19.27;7.35;;;-3.10;99.90;;;;;;4995623;28;20035;-56
2021/01/10 07:26:54;;;;;;;17.30;6.80;;;-3.00;99.90;;;;;;4995988;28;20061;-54
2021/01/10 07:29:38;;;;;;;12.85;5.80;;;-3.00;99.90;;;;;;4997413;28;20072;-55
2021/01/10 07:32:19;;;;;;;14.70;6.47;;;-2.90;99.90;;;;;;4996229;28;20101;-57
2021/01/10 07:34:45;;;;;;;14.23;6.20;;;-2.80;99.90;;;;;;4998236;28;20030;-57
2021/01/10 07:37:16;;;;;;;19.67;7.10;;;-3.00;99.90;;;;;;4998220;28;20034;-56
2021/01/10 07:39:51;;;;;;;14.93;6.60;;;-2.90;99.90;;;;;;4997976;28;20030;-58
2021/01/10 07:42:20;;;;;;;14.13;6.43;;;-2.90;99.90;;;;;;4997941;28;20033;-58
2021/01/10 07:44:56;;;;;;;17.75;7.93;;;-2.90;99.90;;;;;;4998045;28;20042;-57
2021/01/10 07:47:34;;;;;;;19.20;6.95;;;-2.80;99.90;;;;;;4990743;28;20082;-57
2021/01/10 07:50:10;;;;;;;17.58;7.85;;;-2.90;99.90;;;;;;4995086;28;20066;-55
2021/01/10 07:52:42;;;;;;;14.65;7.45;;;-3.00;99.90;;;;;;4994598;28;20038;-55
2021/01/10 07:55:19;;;;;;;15.43;6.90;;;-3.10;99.90;;;;;;4995056;28;20034;-55
2021/01/10 07:58:00;;;;;;;18.90;6.82;;;-3.00;99.90;;;;;;4991971;28;20160;-57
2021/01/10 08:00:33;;;;;;;14.40;6.15;;;-3.00;99.90;;;;;;4992286;28;20041;-57
2021/01/10 08:03:06;;;;;;;11.05;6.28;;;-3.00;99.90;;;;;;4994683;28;20038;-57
2021/01/10 08:05:40;;;;;;;18.25;7.05;;;-2.90;99.90;;;;;;4995202;28;20030;-57
2021/01/10 08:08:12;;;;;;;75.88;29.95;;;-2.90;99.90;;;;;;4994197;28;20042;-56
2021/01/10 08:10:47;;;;;;;24.10;10.43;;;-2.90;99.90;;;;;;4994693;28;20138;-57
2021/01/10 08:13:32;;;;;;;15.48;6.78;;;-2.90;99.90;;;;;;4995237;28;20031;-56
2021/01/10 08:16:13;;;;;;;15.27;6.88;;;-2.90;99.90;;;;;;4994784;28;20038;-59
2021/01/10 08:18:47;;;;;;;13.68;7.47;;;-2.70;99.90;;;;;;4994678;28;20101;-58
2021/01/10 08:21:16;;;;;;;17.38;6.57;;;-2.60;99.90;;;;;;4994835;28;20067;-54
2021/01/10 08:23:45;;;;;;;13.85;6.90;;;-2.40;99.90;;;;;;4994861;28;20061;-55
2021/01/10 08:26:15;;;;;;;12.75;6.07;;;-2.30;99.90;;;;;;4994884;28;20069;-57
2021/01/10 08:28:53;;;;;;;16.38;6.15;;;-2.20;99.90;;;;;;4994368;28;20097;-59
2021/01/10 08:31:24;;;;;;;14.18;5.53;;;-2.20;99.90;;;;;;4994741;28;20042;-58
2021/01/10 08:34:05;;;;;;;12.27;5.68;;;-2.10;99.90;;;;;;4994798;28;20041;-57
2021/01/10 08:36:31;;;;;;;15.50;6.20;;;-2.00;99.90;;;;;;4994573;28;20039;-58
2021/01/10 08:39:08;;;;;;;11.73;5.90;;;-2.00;99.90;;;;;;4993341;28;20026;-56
2021/01/10 08:41:43;;;;;;;11.93;5.97;;;-1.90;99.90;;;;;;4994533;28;20034;-58
2021/01/10 08:44:16;;;;;;;13.55;6.47;;;-1.90;99.90;;;;;;4994600;28;20038;-57
2021/01/10 08:46:44;;;;;;;12.55;5.70;;;-1.90;99.90;;;;;;4994375;28;20035;-56
2021/01/10 08:49:25;;;;;;;12.85;5.35;;;-1.80;99.90;;;;;;4994151;28;20038;-57
2021/01/10 08:51:53;;;;;;;12.03;6.03;;;-1.80;99.90;;;;;;4994283;28;20121;-56
2021/01/10 08:54:24;;;;;;;14.63;6.30;;;-1.60;99.90;;;;;;4994087;28;20294;-57
2021/01/10 08:56:53;;;;;;;12.15;5.35;;;-1.50;99.90;;;;;;4994461;28;20058;-57
2021/01/10 08:59:19;;;;;;;11.73;5.38;;;-1.50;99.90;;;;;;4993592;28;20043;-58
2021/01/10 09:01:50;;;;;;;13.85;6.65;;;-1.40;99.90;;;;;;4993971;28;20514;-60
2021/01/10 09:04:16;;;;;;;15.07;6.72;;;-1.40;99.90;;;;;;4993937;28;20054;-58
2021/01/10 09:07:07;;;;;;;12.20;5.28;;;-1.40;99.90;;;;;;4993649;28;20034;-56
2021/01/10 09:09:50;;;;;;;12.98;6.18;;;-1.40;99.90;;;;;;4993642;28;20038;-56
2021/01/10 09:12:37;;;;;;;14.13;5.93;;;-1.30;99.90;;;;;;4993888;28;20034;-57
2021/01/10 09:15:22;;;;;;;12.60;5.55;;;-1.20;99.90;;;;;;4992779;28;20157;-58
2021/01/10 09:18:09;;;;;;;13.95;6.22;;;-1.10;99.90;;;;;;4993581;28;20034;-57
2021/01/10 09:20:46;;;;;;;13.10;6.13;;;-1.10;99.90;;;;;;4992274;28;20084;-58
2021/01/10 09:23:12;;;;;;;9.98;5.38;;;-0.90;99.90;;;;;;4993141;28;20105;-59
2021/01/10 09:25:39;;;;;;;12.23;5.28;;;-0.70;99.90;;;;;;4991065;28;20026;-59
2021/01/10 09:28:16;;;;;;;21.52;9.68;;;-0.60;99.90;;;;;;4992124;28;20058;-58
2021/01/10 09:30:54;;;;;;;17.45;8.02;;;-0.40;99.90;;;;;;4991445;28;20050;-59
2021/01/10 09:33:30;;;;;;;13.95;5.40;;;-0.30;99.90;;;;;;4990636;28;20053;-56
2021/01/10 09:35:58;;;;;;;14.15;5.75;;;-0.10;99.90;;;;;;4993027;28;20038;-58
2021/01/10 09:38:31;;;;;;;12.77;5.60;;;0.00;99.90;;;;;;4992609;28;20030;-56
2021/01/10 09:41:14;;;;;;;15.95;5.40;;;0.20;99.90;;;;;;4993243;28;20054;-58
2021/01/10 09:43:46;;;;;;;12.13;4.80;;;0.30;99.90;;;;;;4993392;28;20041;-58
2021/01/10 09:46:37;;;;;;;12.18;5.47;;;0.30;99.90;;;;;;4993265;28;20037;-57
2021/01/10 09:49:07;;;;;;;12.70;5.78;;;0.50;99.90;;;;;;4993371;28;20034;-59
2021/01/10 09:51:51;;;;;;;11.70;5.40;;;0.80;99.90;;;;;;4993473;28;20034;-58
2021/01/10 09:54:27;;;;;;;9.35;4.80;;;1.00;99.90;;;;;;4993153;28;20290;-59
2021/01/10 09:56:58;;;;;;;11.50;5.80;;;1.10;99.90;;;;;;4993329;28;20026;-60
2021/01/10 09:59:53;;;;;;;8.90;5.32;;;1.30;99.90;;;;;;4993085;28;20034;-57
2021/01/10 10:02:23;;;;;;;8.63;4.90;;;1.80;99.90;;;;;;4992137;28;20054;-59
2021/01/10 10:05:06;;;;;;;7.68;4.10;;;3.30;99.90;;;;;;4992930;28;20023;-59
2021/01/10 10:07:42;;;;;;;7.15;4.22;;;5.20;99.90;;;;;;4983134;28;20046;-58
2021/01/10 10:10:28;;;;;;;8.15;3.97;;;8.20;95.50;;;;;;5012156;28;20030;-57
2021/01/10 10:13:05;;;;;;;6.60;3.80;;;10.00;84.50;;;;;;5012537;28;20030;-58
2021/01/10 10:15:51;;;;;;;7.68;3.83;;;7.70;86.90;;;;;;5011824;28;20213;-59
2021/01/10 10:18:20;;;;;;;6.07;3.30;;;10.30;84.30;;;;;;5012832;28;20042;-58
2021/01/10 10:20:46;;;;;;;7.05;3.80;;;12.00;74.50;;;;;;5027867;28;20064;-58
2021/01/10 10:23:14;;;;;;;6.95;3.90;;;6.80;88.80;;;;;;5012296;28;20038;-57
2021/01/10 10:25:43;;;;;;;4.72;3.08;;;9.70;85.80;;;;;;5012175;28;20120;-59
2021/01/10 10:28:09;;;;;;;6.72;3.80;;;11.50;75.80;;;;;;5012334;28;20092;-58
2021/01/10 10:30:36;;;;;;;5.72;3.53;;;12.80;69.70;;;;;;4993896;28;20049;-59
2021/01/10 10:33:03;;;;;;;7.88;4.10;;;14.40;62.50;;;;;;4992936;28;20041;-58
2021/01/10 10:35:32;;;;;;;5.50;3.35;;;16.10;55.80;;;;;;4992582;28;20036;-59
2021/01/10 10:37:59;;;;;;;6.60;3.53;;;17.30;51.20;;;;;;4991058;28;20081;-58
2021/01/10 10:40:25;;;;;;;5.80;3.08;;;16.70;51.70;;;;;;4991872;28;20041;-58
2021/01/10 10:42:51;;;;;;;6.72;4.22;;;16.70;50.30;;;;;;4992028;28;20487;-58
2021/01/10 10:45:17;;;;;;;5.05;3.35;;;16.40;48.80;;;;;;4992727;28;20038;-59
2021/01/10 10:47:44;;;;;;;5.78;3.30;;;18.10;47.10;;;;;;4992718;28;20022;-57
2021/01/10 10:50:10;;;;;;;6.30;3.38;;;18.20;45.90;;;;;;4992765;28;20033;-56
2021/01/10 10:52:36;;;;;;;6.72;3.72;;;18.30;44.20;;;;;;4992488;28;20035;-57
2021/01/10 10:55:04;;;;;;;4.93;2.90;;;18.60;44.30;;;;;;4992653;28;20096;-56
2021/01/10 10:57:30;;;;;;;5.85;3.65;;;19.70;42.20;;;;;;4992438;28;20058;-55
2021/01/10 10:59:56;;;;;;;7.07;4.22;;;17.50;41.20;;;;;;5004658;28;20084;-56
2021/01/10 11:02:22;;;;;;;4.82;3.35;;;17.10;44.40;;;;;;5012109;28;20184;-57
2021/01/10 11:04:48;;;;;;;4.82;2.75;;;15.90;47.90;;;;;;5012036;28;20037;-56
2021/01/10 11:07:15;;;;;;;5.43;2.85;;;11.80;49.50;;;;;;5011678;28;20387;-54
2021/01/10 11:09:45;;;;;;;7.72;3.45;;;10.50;58.80;;;;;;5011946;28;20096;-55
2021/01/10 11:12:14;;;;;;;6.38;3.10;;;11.40;55.10;;;;;;5012171;28;20042;-57
2021/01/10 11:14:40;;;;;;;5.00;2.97;;;13.10;54.20;;;;;;5011785;28;20083;-58
2021/01/10 11:17:08;;;;;;;4.97;2.80;;;10.10;54.70;;;;;;5011663;28;20030;-56
2021/01/10 11:19:35;;;;;;;5.80;2.97;;;8.40;62.00;;;;;;5011612;28;20038;-57
2021/01/10 11:22:05;;;;;;;6.18;3.25;;;9.50;64.20;;;;;;5014500;28;20026;-57
2021/01/10 11:24:32;;;;;;;6.47;3.78;;;7.50;66.80;;;;;;5015603;28;20037;-57
2021/01/10 11:26:59;;;;;;;5.30;2.50;;;7.70;71.10;;;;;;5014074;28;20057;-55
2021/01/10 11:29:26;;;;;;;5.07;3.10;;;11.20;64.90;;;;;;5006530;28;20050;-58
2021/01/10 11:31:53;;;;;;;6.15;3.42;;;13.30;54.50;;;;;;4994180;28;20113;-56
2021/01/10 11:34:19;;;;;;;5.43;3.08;;;8.40;65.20;;;;;;4995768;28;20027;-57
2021/01/10 11:36:52;;;;;;;4.22;2.83;;;10.70;64.40;;;;;;4995354;28;20034;-57
2021/01/10 11:39:20;;;;;;;4.25;2.53;;;13.00;58.00;;;;;;4995866;28;20026;-58
2021/01/10 11:41:53;;;;;;;3.83;1.95;;;12.90;56.30;;;;;;4995282;28;20027;-57
2021/01/10 11:44:23;;;;;;;4.22;2.17;;;14.20;51.10;;;;;;4995488;28;20026;-58
2021/01/10 11:46:51;;;;;;;3.97;2.40;;;9.90;61.30;;;;;;4994992;28;20038;-58
2021/01/10 11:49:19;;;;;;;4.28;2.45;;;10.50;59.90;;;;;;4995428;28;20061;-58
2021/01/10 11:51:45;;;;;;;4.13;2.28;;;13.10;56.10;;;;;;4995387;28;20030;-56
2021/01/10 11:54:15;;;;;;;3.47;2.15;;;11.30;54.30;;;;;;4995395;28;20124;-54
2021/01/10 11:56:42;;;;;;;3.38;1.98;;;12.20;55.20;;;;;;4994775;28;20126;-56
2021/01/10 11:59:09;;;;;;;4.70;2.30;;;14.70;51.10;;;;;;5001077;28;20046;-57
2021/01/10 12:01:37;;;;;;;4.25;2.08;;;14.80;49.00;;;;;;5014556;28;20149;-56
2021/01/10 12:04:05;;;;;;;3.28;1.90;;;15.30;49.50;;;;;;5014950;28;20037;-55
2021/01/10 12:06:32;;;;;;;4.05;2.10;;;13.60;51.50;;;;;;5014300;28;20025;-58
2021/01/10 12:08:58;;;;;;;3.63;1.98;;;13.40;50.40;;;;;;5014425;28;20157;-56
2021/01/10 12:11:25;;;;;;;3.45;1.98;;;11.60;50.20;;;;;;5011103;28;20034;-56
2021/01/10 12:13:51;;;;;;;4.88;2.15;;;13.00;52.90;;;;;;4994772;28;20038;-56
2021/01/10 12:16:19;;;;;;;3.38;2.08;;;11.30;56.60;;;;;;4994675;28;20117;-57
2021/01/10 12:18:46;;;;;;;3.70;1.80;;;9.50;58.80;;;;;;4994923;28;20034;-57
2021/01/10 12:21:14;;;;;;;5.15;2.55;;;12.60;55.90;;;;;;4994627;28;20081;-58
2021/01/10 12:23:41;;;;;;;4.40;2.33;;;11.50;54.40;;;;;;4994634;28;20038;-57
2021/01/10 12:26:12;;;;;;;4.18;2.38;;;12.60;54.90;;;;;;4994700;28;20081;-58
2021/01/10 12:28:38;;;;;;;5.90;3.22;;;10.00;58.10;;;;;;4996524;28;20212;-57
2021/01/10 12:31:05;;;;;;;6.13;2.88;;;10.40;56.30;;;;;;5013804;28;20077;-56
2021/01/10 12:33:35;;;;;;;4.38;2.90;;;10.10;59.30;;;;;;5013597;28;20029;-56
2021/01/10 12:36:03;;;;;;;3.03;1.90;;;10.40;59.80;;;;;;5014150;28;20026;-57
2021/01/10 12:38:29;;;;;;;3.85;2.20;;;12.50;55.70;;;;;;5014191;28;20084;-58
2021/01/10 12:40:56;;;;;;;4.38;2.38;;;12.30;53.40;;;;;;5013966;28;20030;-56
2021/01/10 12:43:22;;;;;;;5.30;2.67;;;11.90;55.80;;;;;;5013957;28;20042;-56
2021/01/10 12:45:48;;;;;;;4.28;2.50;;;10.10;57.80;;;;;;5012482;28;20056;-57
2021/01/10 12:48:19;;;;;;;4.25;2.47;;;9.00;63.30;;;;;;4996550;28;20026;-56
2021/01/10 12:50:46;;;;;;;8.70;4.07;;;10.90;58.50;;;;;;5013653;28;20126;-57
2021/01/10 12:53:14;;;;;;;6.60;3.15;;;10.40;59.60;;;;;;5013481;28;20041;-57
2021/01/10 12:55:40;;;;;;;8.70;4.35;;;11.20;59.20;;;;;;5012954;28;20064;-57
2021/01/10 12:58:05;;;;;;;4.28;2.35;;;10.50;59.30;;;;;;5013155;28;20054;-57